Time;durP1;ratioP1;P1;durP2;ratioP2;P2;SDS_P1;SDS_P2;PMS_P1;PMS_P2;Temp;Humidity;BMP_temperature;BMP_pressure;BME280_temperature;BME280_humidity;BME280_pressure;Samples;Min_cycle;Max_cycle;Signal;HPM_P1;HPM_P2
2022/05/24 00:00:02;;;;;;;8.17;6.60;;;;;;;16.24;100.00;98443.88;5044183;28;20244;-77
2022/05/24 00:02:38;;;;;;;6.93;6.23;;;;;;;16.29;100.00;98441.13;5029056;28;20183;-74
2022/05/24 00:05:06;;;;;;;7.10;6.43;;;;;;;16.33;100.00;98441.38;5029271;28;20194;-75
2022/05/24 00:07:33;;;;;;;7.30;6.63;;;;;;;16.32;100.00;98452.47;5029117;28;20190;-75
2022/05/24 00:10:00;;;;;;;6.73;6.13;;;;;;;16.34;100.00;98447.56;5029310;28;20588;-76
2022/05/24 00:12:27;;;;;;;6.70;6.00;;;;;;;16.35;100.00;98443.78;5029204;28;20538;-74
2022/05/24 00:17:39;;;;;;;7.03;6.43;;;;;;;16.28;100.00;98452.25;5029114;28;20253;-76
2022/05/24 00:20:07;;;;;;;6.90;5.90;;;;;;;16.25;100.00;98444.69;5044264;28;20249;-75
2022/05/24 00:22:33;;;;;;;6.47;5.83;;;;;;;16.28;100.00;98444.16;5029256;28;20654;-74
2022/05/24 00:25:01;;;;;;;6.60;6.03;;;;;;;16.24;100.00;98434.97;5029063;28;20183;-77
2022/05/24 00:27:29;;;;;;;6.80;6.13;;;;;;;16.25;100.00;98432.00;5029258;28;20199;-77
2022/05/24 00:29:56;;;;;;;7.03;6.10;;;;;;;16.27;100.00;98437.13;5028340;28;20198;-78
2022/05/24 00:32:23;;;;;;;6.10;5.60;;;;;;;16.28;100.00;98431.41;5031699;28;20256;-76
2022/05/24 00:34:50;;;;;;;6.83;6.10;;;;;;;16.28;100.00;98426.00;5031757;28;20646;-77
2022/05/24 00:37:20;;;;;;;7.27;6.57;;;;;;;16.29;100.00;98424.91;5031352;28;20680;-77
2022/05/24 00:39:47;;;;;;;6.57;5.90;;;;;;;16.27;100.00;98416.31;5033091;28;20183;-76
2022/05/24 00:42:20;;;;;;;6.50;5.90;;;;;;;16.24;100.00;98416.06;5032514;28;20208;-77
2022/05/24 00:44:55;;;;;;;7.50;6.20;;;;;;;16.23;100.00;98417.16;5048478;28;20183;-77
2022/05/24 00:47:36;;;;;;;6.80;6.20;;;;;;;16.17;100.00;98405.59;5031292;28;20228;-77
2022/05/24 00:50:10;;;;;;;7.17;5.90;;;;;;;16.12;100.00;98408.34;5031364;28;20602;-77
2022/05/24 00:52:47;;;;;;;6.47;5.57;;;;;;;16.14;100.00;98406.16;5047685;28;20249;-77
2022/05/24 00:55:21;;;;;;;6.10;5.60;;;;;;;16.15;100.00;98401.56;5047852;28;20225;-76
2022/05/24 00:57:58;;;;;;;6.40;5.80;;;;;;;16.14;100.00;98394.56;5046712;28;20234;-78
2022/05/24 01:00:24;;;;;;;6.77;6.17;;;;;;;16.17;100.00;98396.69;5047666;28;20171;-76
2022/05/24 01:02:51;;;;;;;6.70;6.10;;;;;;;16.14;100.00;98383.75;5032192;28;20186;-75
2022/05/24 01:05:22;;;;;;;7.40;6.10;;;;;;;16.10;100.00;98382.69;5032339;28;20185;-76
2022/05/24 01:07:48;;;;;;;6.97;6.30;;;;;;;16.10;100.00;98374.56;5032366;28;20187;-75
2022/05/24 01:10:19;;;;;;;6.57;5.97;;;;;;;16.08;100.00;98379.47;5047410;28;20187;-76
2022/05/24 01:12:52;;;;;;;7.00;6.40;;;;;;;16.09;100.00;98381.91;5032212;28;20744;-75
2022/05/24 01:15:19;;;;;;;8.50;6.03;;;;;;;16.06;100.00;98378.94;5030727;28;20179;-75
2022/05/24 01:17:47;;;;;;;6.77;6.17;;;;;;;16.06;100.00;98376.25;5047056;28;20244;-74
2022/05/24 01:20:14;;;;;;;6.73;6.03;;;;;;;16.06;100.00;98381.66;5047197;28;20186;-75
2022/05/24 01:22:59;;;;;;;6.83;5.93;;;;;;;16.07;100.00;98372.47;5046956;28;20190;-75
2022/05/24 01:25:36;;;;;;;7.30;6.50;;;;;;;16.05;100.00;98377.38;5032292;28;20260;-75
2022/05/24 01:28:06;;;;;;;6.47;5.97;;;;;;;16.00;100.00;98377.41;5031521;28;20237;-75
2022/05/24 01:30:33;;;;;;;7.23;6.17;;;;;;;16.00;100.00;98372.00;5047314;28;20198;-75
2022/05/24 01:38:31;;;;;;;7.23;6.23;;;;;;;15.98;100.00;98379.56;5031578;28;20202;-74
2022/05/24 01:40:58;;;;;;;7.27;6.10;;;;;;;15.97;100.00;98372.56;5046946;28;20642;-75
2022/05/24 01:43:26;;;;;;;6.77;6.07;;;;;;;15.96;100.00;98387.94;5030946;28;20199;-76
2022/05/24 01:45:58;;;;;;;6.67;6.07;;;;;;;15.91;100.00;98382.59;5014003;28;20712;-75
2022/05/24 01:48:29;;;;;;;6.67;6.00;;;;;;;15.89;100.00;98376.69;5030329;28;20229;-75
2022/05/24 01:50:57;;;;;;;7.73;6.17;;;;;;;15.88;100.00;98377.78;5031488;28;20797;-75
2022/05/24 01:53:29;;;;;;;6.60;5.97;;;;;;;15.85;100.00;98376.47;5046277;28;20179;-76
2022/05/24 01:56:20;;;;;;;6.40;5.80;;;;;;;15.86;100.00;98379.97;5031169;28;20187;-78
2022/05/24 01:58:53;;;;;;;7.47;5.80;;;;;;;15.86;100.00;98386.16;5046465;28;20238;-75
2022/05/24 02:01:40;;;;;;;8.23;5.83;;;;;;;15.88;100.00;98387.75;5046195;28;20209;-75
2022/05/24 02:04:07;;;;;;;6.17;5.67;;;;;;;15.85;100.00;98384.56;5029283;28;20632;-75
2022/05/24 02:06:34;;;;;;;6.60;5.90;;;;;;;15.83;100.00;98386.72;5030913;28;20178;-75
2022/05/24 02:09:02;;;;;;;6.57;5.97;;;;;;;15.82;100.00;98387.81;5045867;28;20666;-74
2022/05/24 02:11:31;;;;;;;6.50;6.00;;;;;;;15.80;100.00;98390.00;5030711;28;20187;-75
2022/05/24 02:14:18;;;;;;;7.53;6.27;;;;;;;15.76;100.00;98393.56;5029952;28;20191;-75
2022/05/24 02:16:59;;;;;;;6.53;6.00;;;;;;;15.75;100.00;98400.03;5045952;28;20634;-76
2022/05/24 02:19:29;;;;;;;6.70;6.10;;;;;;;15.61;100.00;98396.38;5030870;28;20610;-76
2022/05/24 02:21:59;;;;;;;6.33;5.73;;;;;;;15.59;100.00;98398.53;5030771;28;20182;-77
2022/05/24 02:24:26;;;;;;;7.70;6.10;;;;;;;15.56;100.00;98402.59;5029680;28;20245;-76
2022/05/24 02:26:55;;;;;;;6.53;5.97;;;;;;;15.57;100.00;98404.22;5029609;28;20222;-76
2022/05/24 02:29:22;;;;;;;7.10;6.40;;;;;;;15.59;100.00;98404.72;5029168;28;20639;-76
2022/05/24 02:31:50;;;;;;;6.83;6.07;;;;;;;15.54;100.00;98404.78;5030638;28;20186;-77
2022/05/24 02:34:18;;;;;;;6.73;6.23;;;;;;;15.51;100.00;98404.53;5030300;28;20233;-76
2022/05/24 02:36:45;;;;;;;7.20;6.50;;;;;;;15.52;100.00;98411.56;5030493;28;20213;-76
2022/05/24 02:39:12;;;;;;;7.13;6.47;;;;;;;15.51;100.00;98416.13;5030103;28;20670;-76
2022/05/24 02:41:43;;;;;;;6.43;5.90;;;;;;;15.47;100.00;98411.56;5030632;28;20261;-77
2022/05/24 02:44:13;;;;;;;6.27;5.77;;;;;;;15.46;100.00;98418.03;5030100;28;20221;-76
2022/05/24 02:46:43;;;;;;;6.37;5.87;;;;;;;15.46;100.00;98409.94;5045548;28;20191;-76
2022/05/24 02:49:09;;;;;;;6.83;6.17;;;;;;;15.46;100.00;98416.13;5030125;28;20195;-77
2022/05/24 02:51:38;;;;;;;6.57;5.97;;;;;;;15.44;100.00;98410.22;5030001;28;20190;-75
2022/05/24 02:54:06;;;;;;;6.93;6.07;;;;;;;15.45;100.00;98414.53;5027538;28;20209;-75
2022/05/24 02:56:33;;;;;;;7.57;6.60;;;;;;;15.48;100.00;98421.28;5029680;28;20260;-75
2022/05/24 02:59:02;;;;;;;6.83;5.77;;;;;;;15.48;100.00;98419.38;5029539;28;20318;-76
2022/05/24 03:01:29;;;;;;;7.73;6.87;;;;;;;15.51;100.00;98418.84;5029811;28;20564;-74
2022/05/24 03:03:56;;;;;;;6.50;5.90;;;;;;;15.50;100.00;98419.88;5030029;28;20213;-77
2022/05/24 03:06:24;;;;;;;7.00;6.40;;;;;;;15.51;100.00;98415.34;5044845;28;20186;-75
2022/05/24 03:14:23;;;;;;;7.03;6.33;;;;;;;15.46;100.00;98418.03;5030019;28;20174;-75
2022/05/24 03:16:54;;;;;;;7.40;6.70;;;;;;;15.46;100.00;98418.03;5030293;28;20258;-76
2022/05/24 03:19:22;;;;;;;8.27;7.33;;;;;;;15.42;100.00;98424.00;5044632;28;20218;-75
2022/05/24 03:21:50;;;;;;;7.60;7.00;;;;;;;15.40;100.00;98420.75;5028596;28;20190;-77
2022/05/24 03:24:17;;;;;;;7.70;7.03;;;;;;;15.40;100.00;98415.34;5029541;28;20611;-76
2022/05/24 03:26:44;;;;;;;7.67;6.97;;;;;;;15.38;100.00;98417.56;5045074;28;20649;-76
2022/05/24 03:29:11;;;;;;;7.50;6.80;;;;;;;15.38;100.00;98409.44;5029249;28;20598;-77
2022/05/24 03:31:38;;;;;;;9.07;7.07;;;;;;;15.38;100.00;98412.16;5029695;28;20205;-77
2022/05/24 03:34:06;;;;;;;8.67;7.23;;;;;;;15.39;100.00;98404.88;5029390;28;20192;-76
2022/05/24 03:36:33;;;;;;;7.47;6.87;;;;;;;15.44;100.00;98416.41;5028511;28;20190;-77
2022/05/24 03:39:00;;;;;;;7.67;6.97;;;;;;;15.46;100.00;98420.72;5044578;28;20214;-80
2022/05/24 03:41:27;;;;;;;7.40;6.80;;;;;;;15.48;100.00;98421.28;5029661;28;20241;-76
2022/05/24 03:43:54;;;;;;;7.83;7.17;;;;;;;15.50;100.00;98419.06;5029448;28;20182;-77
2022/05/24 03:46:21;;;;;;;10.27;7.20;;;;;;;15.52;100.00;98419.66;5029592;28;20183;-76
2022/05/24 03:48:48;;;;;;;7.20;6.60;;;;;;;15.54;100.00;98423.66;5029486;28;20282;-76
2022/05/24 03:51:16;;;;;;;7.40;6.80;;;;;;;15.56;100.00;98429.59;5029706;28;20269;-76
2022/05/24 03:53:43;;;;;;;7.70;7.00;;;;;;;15.61;100.00;98434.97;5029754;28;20183;-77
2022/05/24 03:56:11;;;;;;;8.10;7.30;;;;;;;15.62;100.00;98430.38;5029272;28;20190;-78
2022/05/24 03:58:38;;;;;;;7.50;6.77;;;;;;;15.66;100.00;98432.22;5029753;28;20218;-77
2022/05/24 04:01:05;;;;;;;7.40;6.70;;;;;;;15.70;100.00;98438.69;5044703;28;20191;-77
2022/05/24 04:03:32;;;;;;;7.30;6.63;;;;;;;15.78;100.00;98439.97;5044453;28;20193;-77
2022/05/24 04:05:59;;;;;;;7.37;6.67;;;;;;;15.79;100.00;98439.69;5031634;28;20187;-80
2022/05/24 04:08:26;;;;;;;7.53;6.83;;;;;;;15.84;100.00;98441.53;5048447;28;20277;-78
2022/05/24 04:11:02;;;;;;;7.20;6.60;;;;;;;15.92;100.00;98440.13;5048609;28;20232;-78
2022/05/24 04:13:30;;;;;;;6.97;6.27;;;;;;;15.95;100.00;98439.56;5032155;28;20265;-77
2022/05/24 04:15:57;;;;;;;7.63;6.93;;;;;;;16.04;100.00;98443.28;5033193;28;20272;-77
2022/05/24 04:18:24;;;;;;;7.13;6.50;;;;;;;16.14;100.00;98445.91;5032945;28;20214;-77
2022/05/24 04:20:53;;;;;;;7.10;6.40;;;;;;;16.29;100.00;98445.72;5032297;28;20179;-77
2022/05/24 04:23:21;;;;;;;6.87;6.27;;;;;;;16.36;100.00;98440.00;5031390;28;20280;-76
2022/05/24 04:25:48;;;;;;;6.37;5.87;;;;;;;16.44;100.00;98442.88;5033007;28;20190;-77
2022/05/24 04:28:18;;;;;;;6.33;5.73;;;;;;;16.53;100.00;98449.28;5032784;28;20210;-77
2022/05/24 04:30:49;;;;;;;7.43;6.13;;;;;;;16.64;100.00;98447.31;5032956;28;20187;-77
2022/05/24 04:33:16;;;;;;;5.60;5.10;;;;;;;16.79;100.00;98457.16;5031463;28;20178;-77
2022/05/24 04:35:44;;;;;;;5.87;5.37;;;;;;;16.85;100.00;98455.97;5032973;28;20183;-77
2022/05/24 04:38:11;;;;;;;5.77;5.17;;;;;;;16.99;100.00;98459.59;5031216;28;20191;-77
2022/05/24 04:43:23;;;;;;;6.00;5.40;;;;;;;17.07;100.00;98469.81;5032467;28;20167;-77
2022/05/24 04:45:53;;;;;;;6.57;5.50;;;;;;;17.07;100.00;98469.81;5032541;28;20183;-78
2022/05/24 04:48:24;;;;;;;5.93;5.30;;;;;;;17.07;100.00;98467.09;5032504;28;20779;-77
2022/05/24 04:50:56;;;;;;;6.20;5.40;;;;;;;17.14;100.00;98470.25;5032947;28;20187;-77
2022/05/24 04:53:24;;;;;;;7.33;5.20;;;;;;;17.18;100.00;98476.69;5032135;28;20186;-78
2022/05/24 04:55:52;;;;;;;6.07;5.10;;;;;;;17.23;100.00;98476.63;5032535;28;20266;-78
2022/05/24 04:58:19;;;;;;;5.10;4.60;;;;;;;17.39;100.00;98477.25;5046807;28;20239;-77
2022/05/24 05:00:48;;;;;;;5.63;4.87;;;;;;;17.59;100.00;98482.38;5032415;28;20193;-78
2022/05/24 05:03:19;;;;;;;5.20;4.73;;;;;;;17.71;100.00;98481.97;5032027;28;20262;-78
2022/05/24 05:05:49;;;;;;;5.17;4.77;;;;;;;17.84;100.00;98490.16;5031110;28;20222;-78
2022/05/24 05:08:16;;;;;;;5.77;5.03;;;;;;;17.98;100.00;98485.59;5030462;28;20510;-77
2022/05/24 05:10:43;;;;;;;5.47;4.93;;;;;;;18.02;100.00;98493.94;5027152;28;20213;-79
2022/05/24 05:13:15;;;;;;;6.57;5.30;;;;;;;18.12;100.00;98495.69;5040739;28;20233;-76
2022/05/24 05:15:42;;;;;;;5.03;4.40;;;;;;;18.23;100.00;98503.38;5032229;28;20194;-78
2022/05/24 05:18:14;;;;;;;5.40;4.90;;;;;;;18.43;100.00;98500.28;5030155;28;20221;-79
2022/05/24 05:20:41;;;;;;;5.47;4.90;;;;;;;18.52;100.00;98507.75;5030508;28;20191;-77
2022/05/24 05:23:11;;;;;;;5.43;4.93;;;;;;;18.74;100.00;98521.50;5018097;28;20199;-79
2022/05/24 05:25:39;;;;;;;6.30;4.80;;;;;;;18.87;100.00;98518.00;5031663;28;20180;-77
2022/05/24 05:28:06;;;;;;;7.17;5.07;;;;;;;19.03;100.00;98526.66;5034433;28;20244;-79
2022/05/24 05:33:18;;;;;;;5.20;4.30;;;;;;;19.21;100.00;98536.59;5031473;28;20189;-78
2022/05/24 05:35:46;;;;;;;4.70;4.13;;;;;;;19.31;100.00;98539.13;5032017;28;20215;-78
2022/05/24 05:38:13;;;;;;;6.27;4.03;;;;;;;19.40;100.00;98542.75;5048647;28;20208;-79
2022/05/24 05:40:41;;;;;;;5.33;4.50;;;;;;;19.50;100.00;98556.16;5050357;28;20179;-78
2022/05/24 05:43:08;;;;;;;11.77;4.83;;;;;;;19.41;100.00;98557.13;5037108;28;20252;-81
2022/05/24 05:45:35;;;;;;;4.93;4.23;;;;;;;19.42;100.00;98556.81;5024454;28;20250;-78
2022/05/24 05:48:03;;;;;;;5.47;4.70;;;;;;;19.42;100.00;98566.84;5025164;28;20269;-79
2022/05/24 05:50:30;;;;;;;4.73;4.30;;;;;;;19.33;100.00;98562.13;5045021;28;20532;-80
2022/05/24 05:52:56;;;;;;;6.80;4.60;;;;;;;19.47;100.00;98575.75;5029479;28;20256;-79
2022/05/24 05:55:26;;;;;;;5.80;4.60;;;;;;;19.49;100.00;98575.44;5031098;28;20242;-80
2022/05/24 05:57:53;;;;;;;5.33;4.67;;;;;;;19.52;100.00;98575.66;5046036;28;20851;-80
2022/05/24 06:00:20;;;;;;;6.07;4.03;;;;;;;19.68;100.00;98587.81;5031072;28;20301;-79
2022/05/24 06:02:47;;;;;;;6.23;4.50;;;;;;;19.81;100.00;98585.38;5030894;28;20188;-78
2022/05/24 06:05:14;;;;;;;4.93;4.50;;;;;;;20.07;100.00;98589.13;5030793;28;20212;-78
2022/05/24 06:07:41;;;;;;;5.40;4.70;;;;;;;20.36;100.00;98595.00;5016536;28;20880;-80
2022/05/24 06:10:10;;;;;;;4.63;4.30;;;;;;;20.67;100.00;98597.00;5014669;28;20255;-79
2022/05/24 06:12:37;;;;;;;5.10;4.60;;;;;;;20.81;100.00;98592.28;5028486;28;20225;-78
2022/05/24 06:15:04;;;;;;;5.00;4.50;;;;;;;21.12;100.00;98592.28;5030655;28;20248;-78
2022/05/24 06:17:32;;;;;;;5.87;4.50;;;;;;;21.27;100.00;98584.56;5030936;28;20189;-78
2022/05/24 06:20:00;;;;;;;5.03;4.60;;;;;;;21.34;100.00;98592.25;5017110;28;20304;-78
2022/05/24 06:22:27;;;;;;;5.77;4.77;;;;;;;21.34;100.00;98595.78;5029693;28;20667;-78
2022/05/24 06:24:54;;;;;;;5.63;4.60;;;;;;;21.54;100.00;98591.69;5028904;28;20551;-78
2022/05/24 06:27:22;;;;;;;5.10;4.60;;;;;;;21.60;100.00;98592.34;5024396;28;20273;-78
2022/05/24 06:29:49;;;;;;;5.10;4.50;;;;;;;21.73;100.00;98596.88;5022619;28;20190;-81
2022/05/24 06:32:16;;;;;;;5.77;4.40;;;;;;;21.70;100.00;98590.13;5026876;28;20658;-78
2022/05/24 06:34:43;;;;;;;5.70;4.63;;;;;;;21.60;100.00;98595.88;5027322;28;20189;-78
2022/05/24 06:37:10;;;;;;;4.87;4.10;;;;;;;21.47;100.00;98588.59;5029930;28;20197;-79
2022/05/24 06:39:37;;;;;;;4.97;4.57;;;;;;;21.58;100.00;98589.13;5029605;28;20203;-78
2022/05/24 06:42:04;;;;;;;5.47;4.60;;;;;;;21.50;100.00;98588.00;5030083;28;20186;-78
2022/05/24 06:44:33;;;;;;;5.63;4.57;;;;;;;21.53;100.00;98587.34;5027915;28;20194;-78
2022/05/24 06:47:00;;;;;;;5.10;4.60;;;;;;;21.29;100.00;98587.75;5044692;28;20185;-81
2022/05/24 06:49:27;;;;;;;5.27;4.87;;;;;;;21.25;100.00;98585.97;5030322;28;20189;-77
2022/05/24 06:51:53;;;;;;;4.90;4.50;;;;;;;21.44;100.00;98581.06;5030597;28;20693;-77
2022/05/24 06:54:20;;;;;;;5.10;4.60;;;;;;;21.51;100.00;98571.31;5029662;28;20199;-77
2022/05/24 06:56:47;;;;;;;6.77;4.70;;;;;;;21.62;100.00;98571.03;5043525;28;20244;-76
2022/05/24 07:04:45;;;;;;;4.77;4.37;;;;;;;22.08;100.00;98568.56;5030045;28;20634;-77
2022/05/24 07:07:12;;;;;;;5.33;4.43;;;;;;;22.30;100.00;98553.97;5024893;28;20612;-78
2022/05/24 07:09:40;;;;;;;4.70;4.20;;;;;;;22.49;100.00;98567.28;5009849;28;20249;-77
2022/05/24 07:12:07;;;;;;;4.97;4.47;;;;;;;22.36;100.00;98566.31;5009915;28;20194;-77
2022/05/24 07:14:35;;;;;;;4.20;3.80;;;;;;;22.62;100.00;98563.56;5024995;28;20186;-77
2022/05/24 07:17:01;;;;;;;5.55;3.78;;;;;;;22.62;100.00;98550.72;5024944;28;20526;-77
2022/05/24 07:19:30;;;;;;;4.55;4.15;;;;;;;22.67;100.00;98534.16;5009845;28;20219;-77
2022/05/24 07:21:57;;;;;;;4.70;4.30;;;;;;;22.65;100.00;98533.69;5010096;28;20201;-77
2022/05/24 07:24:23;;;;;;;7.90;4.28;;;;;;;22.85;100.00;98529.47;5024853;28;20190;-77
2022/05/24 07:26:51;;;;;;;4.35;3.97;;;;;;;22.82;100.00;98541.03;5009489;28;20189;-76
2022/05/24 07:29:21;;;;;;;4.53;4.13;;;;;;;22.76;100.00;98548.63;5020246;28;20240;-77
2022/05/24 07:31:49;;;;;;;5.00;4.00;;;;;;;22.54;100.00;98546.06;5026280;28;20190;-81
2022/05/24 07:34:16;;;;;;;4.43;4.13;;;;;;;22.61;100.00;98557.28;5014055;28;20205;-76
2022/05/24 07:36:43;;;;;;;5.15;3.85;;;;;;;22.55;100.00;98555.03;5017606;28;20186;-79
2022/05/24 07:39:10;;;;;;;5.22;4.75;;;;;;;22.69;100.00;98548.28;5025865;28;20220;-77
2022/05/24 07:47:29;;;;;;;4.60;4.20;;;;;;;22.70;100.00;98554.56;5039300;28;20221;-77
2022/05/24 07:49:57;;;;;;;4.78;4.35;;;;;;;22.92;100.00;98556.28;5029511;28;20815;-76
2022/05/24 07:52:23;;;;;;;5.30;4.20;;;;;;;23.10;100.00;98552.34;5025825;28;20827;-76
2022/05/24 07:54:51;;;;;;;4.78;4.05;;;;;;;23.39;100.00;98557.06;5019899;28;20217;-77
2022/05/24 07:57:18;;;;;;;5.10;4.57;;;;;;;23.82;100.00;98560.38;5026871;28;20222;-76
2022/05/24 07:59:50;;;;;;;4.68;4.25;;;;;;;24.19;100.00;98553.19;5047568;28;20539;-75
2022/05/24 08:02:21;;;;;;;4.32;3.92;;;;;;;24.42;100.00;98553.66;5032217;28;20195;-75
2022/05/24 08:04:47;;;;;;;5.00;4.25;;;;;;;24.51;100.00;98554.38;5030581;28;20183;-75
2022/05/24 08:07:15;;;;;;;6.93;4.18;;;;;;;24.71;98.82;98548.03;5030323;28;20699;-75
2022/05/24 08:09:42;;;;;;;5.20;4.00;;;;;;;25.05;97.06;98552.38;5032863;28;20229;-76
2022/05/24 08:12:09;;;;;;;4.93;4.30;;;;;;;25.03;96.42;98562.88;5033148;28;20209;-76
2022/05/24 08:14:36;;;;;;;4.45;4.05;;;;;;;25.33;92.45;98560.75;5032971;28;20244;-76
2022/05/24 08:17:03;;;;;;;4.43;4.03;;;;;;;25.50;91.49;98554.22;5032816;28;20191;-76
2022/05/24 08:19:36;;;;;;;4.30;4.00;;;;;;;25.48;90.79;98562.78;5034174;28;20228;-76
2022/05/24 08:22:03;;;;;;;4.07;3.78;;;;;;;25.62;87.19;98554.22;5051142;28;20197;-76
2022/05/24 08:24:30;;;;;;;5.15;4.05;;;;;;;25.85;86.73;98549.84;5052869;28;20230;-76
2022/05/24 08:26:57;;;;;;;4.72;4.20;;;;;;;25.95;85.13;98545.84;5049060;28;20618;-76
2022/05/24 08:29:23;;;;;;;5.85;4.05;;;;;;;26.06;83.26;98553.25;5032486;28;20187;-78
2022/05/24 08:31:50;;;;;;;4.20;3.90;;;;;;;26.28;80.56;98546.47;5032822;28;20186;-76
2022/05/24 08:34:18;;;;;;;5.28;4.10;;;;;;;25.98;83.04;98554.19;5032711;28;20210;-78
2022/05/24 08:36:45;;;;;;;5.18;3.70;;;;;;;26.36;82.48;98552.97;5032485;28;20194;-80
2022/05/24 08:39:11;;;;;;;4.68;3.80;;;;;;;26.47;82.55;98556.78;5032103;28;20189;-77
2022/05/24 08:42:15;;;;;;;4.18;3.72;;;;;;;26.35;81.69;98549.41;5032121;28;20239;-78
2022/05/24 08:50:31;;;;;;;4.70;3.65;;;;;;;26.42;83.08;98551.56;5051758;28;20170;-79
2022/05/24 08:53:04;;;;;;;6.93;4.00;;;;;;;25.98;86.51;98545.16;5050888;28;20197;-76
2022/05/24 08:55:38;;;;;;;5.68;4.05;;;;;;;26.01;84.13;98553.50;5052216;28;20201;-76
2022/05/24 08:58:10;;;;;;;8.95;4.20;;;;;;;26.13;85.81;98547.19;5050493;28;20287;-79
2022/05/24 09:00:39;;;;;;;4.82;4.18;;;;;;;26.08;87.60;98547.44;5050475;28;20197;-78
2022/05/24 09:03:08;;;;;;;4.40;4.00;;;;;;;26.26;82.45;98557.00;5051568;28;20220;-79
2022/05/24 09:05:47;;;;;;;6.03;4.28;;;;;;;26.33;80.42;98546.22;5051655;28;20186;-75
2022/05/24 09:08:27;;;;;;;4.15;3.80;;;;;;;26.42;79.52;98543.31;5050356;28;20181;-79
2022/05/24 09:11:09;;;;;;;4.40;3.55;;;;;;;26.36;80.17;98548.28;5051876;28;20632;-76
2022/05/24 09:13:46;;;;;;;3.90;3.58;;;;;;;26.34;82.57;98539.59;5050636;28;20654;-78
2022/05/24 09:16:15;;;;;;;4.05;3.65;;;;;;;26.64;79.71;98540.78;5050075;28;20180;-78
2022/05/24 09:19:15;;;;;;;4.22;3.83;;;;;;;26.96;75.37;98541.69;5051526;28;20197;-78
2022/05/24 09:21:43;;;;;;;4.63;3.60;;;;;;;27.14;75.06;98533.91;5050277;28;20185;-76
2022/05/24 09:24:24;;;;;;;6.47;4.10;;;;;;;27.25;77.10;98531.41;5051375;28;20200;-76
2022/05/24 09:27:03;;;;;;;4.20;3.72;;;;;;;27.16;77.87;98537.88;5050345;28;20809;-78
2022/05/24 09:29:31;;;;;;;5.40;3.60;;;;;;;27.27;75.71;98531.84;5049988;28;20193;-76
2022/05/24 09:32:04;;;;;;;3.80;3.40;;;;;;;27.22;72.51;98532.91;5051608;28;20881;-76
2022/05/24 09:34:33;;;;;;;4.63;3.60;;;;;;;27.19;70.50;98538.31;5051400;28;20174;-75
2022/05/24 09:37:07;;;;;;;5.07;3.42;;;;;;;27.20;68.65;98537.97;5051332;28;20190;-78
2022/05/24 09:39:37;;;;;;;3.75;3.40;;;;;;;27.19;70.99;98543.81;5051269;28;20198;-76
2022/05/24 09:42:10;;;;;;;3.72;3.38;;;;;;;27.28;69.88;98545.25;5051543;28;20189;-77
2022/05/24 09:44:48;;;;;;;4.20;3.67;;;;;;;27.52;67.39;98544.28;5051337;28;20173;-76
2022/05/24 09:47:42;;;;;;;4.40;3.47;;;;;;;27.89;61.71;98542.78;5049829;28;20174;-77
2022/05/24 09:50:18;;;;;;;4.00;3.60;;;;;;;28.79;58.46;98541.50;5050793;28;20189;-77
2022/05/24 09:53:06;;;;;;;3.72;3.50;;;;;;;29.51;57.59;98554.56;5051127;28;20174;-78
2022/05/24 09:55:43;;;;;;;3.97;3.55;;;;;;;29.46;55.53;98558.44;5051088;28;20641;-77
2022/05/24 09:58:37;;;;;;;7.13;3.67;;;;;;;29.99;53.37;98555.72;5049146;28;20282;-77
2022/05/24 10:01:11;;;;;;;4.40;3.53;;;;;;;30.03;51.31;98559.31;5049244;28;20194;-77
2022/05/24 10:03:40;;;;;;;5.13;3.50;;;;;;;30.07;51.37;98546.34;5049037;28;20192;-77
2022/05/24 10:06:29;;;;;;;4.82;3.50;;;;;;;30.30;51.04;98557.28;5050786;28;20182;-76
2022/05/24 10:09:04;;;;;;;5.35;3.45;;;;;;;30.49;49.12;98557.94;5049889;28;20186;-77
2022/05/24 10:11:38;;;;;;;4.40;3.47;;;;;;;30.39;50.51;98546.75;5049450;28;20166;-77
2022/05/24 10:14:26;;;;;;;5.25;3.38;;;;;;;30.41;50.47;98550.72;5049240;28;20174;-76
2022/05/24 10:17:11;;;;;;;7.88;3.60;;;;;;;30.22;51.18;98547.31;5050468;28;20178;-77
2022/05/24 10:20:06;;;;;;;3.67;3.25;;;;;;;29.95;52.64;98558.44;5049570;28;20227;-76
2022/05/24 10:23:04;;;;;;;6.28;3.70;;;;;;;30.06;52.22;98553.03;5050684;28;20170;-76
2022/05/24 10:25:37;;;;;;;4.90;3.63;;;;;;;29.83;54.60;98558.59;5049004;28;20206;-76
2022/05/24 10:28:39;;;;;;;5.60;3.35;;;;;;;30.09;51.68;98553.09;5048808;28;20202;-76
2022/05/24 10:31:44;;;;;;;4.63;3.40;;;;;;;29.70;53.43;98552.50;5048997;28;20170;-77
2022/05/24 10:40:46;;;;;;;4.18;3.78;;;;;;;28.87;56.65;98548.75;5050103;28;20194;-77
2022/05/24 10:43:39;;;;;;;4.75;3.75;;;;;;;28.69;57.68;98544.84;5048946;28;20199;-76
2022/05/24 10:46:17;;;;;;;5.05;3.47;;;;;;;28.12;61.41;98547.59;5050072;28;20174;-77
2022/05/24 10:48:49;;;;;;;4.47;3.53;;;;;;;27.73;61.66;98546.72;5048957;28;20170;-77
2022/05/24 10:51:31;;;;;;;4.78;3.95;;;;;;;27.44;63.42;98551.50;5048735;28;20231;-78
2022/05/24 10:54:01;;;;;;;5.30;4.10;;;;;;;27.44;62.53;98547.97;5050241;28;20166;-76
2022/05/24 10:56:48;;;;;;;4.80;3.90;;;;;;;27.36;64.75;98554.44;5050072;28;20178;-77
2022/05/24 10:59:39;;;;;;;4.32;3.70;;;;;;;26.87;65.84;98549.31;5048513;28;20700;-76
2022/05/24 11:02:15;;;;;;;3.90;3.60;;;;;;;26.79;66.66;98541.19;5049776;28;20174;-76
2022/05/24 11:04:53;;;;;;;6.30;3.88;;;;;;;26.82;66.51;98541.28;5048555;28;20174;-77
2022/05/24 11:07:20;;;;;;;4.28;3.88;;;;;;;26.89;66.29;98535.19;5048846;28;20592;-76
2022/05/24 11:10:21;;;;;;;5.03;3.75;;;;;;;26.62;69.84;98529.38;5048418;28;20205;-76
2022/05/24 11:12:51;;;;;;;5.00;3.85;;;;;;;26.56;70.43;98522.53;5047123;28;20247;-77
2022/05/24 11:15:33;;;;;;;6.57;4.10;;;;;;;26.87;66.37;98526.53;5048629;28;20224;-76
2022/05/24 11:18:11;;;;;;;5.07;4.18;;;;;;;27.02;64.62;98518.28;5048624;28;20182;-78
2022/05/24 11:20:41;;;;;;;5.40;3.90;;;;;;;27.10;65.91;98522.00;5048369;28;20224;-76
2022/05/24 11:23:16;;;;;;;4.40;4.00;;;;;;;27.78;61.88;98533.47;5044500;28;20256;-76
2022/05/24 11:25:54;;;;;;;4.82;3.78;;;;;;;28.28;57.66;98537.31;5024150;28;20182;-76
2022/05/24 11:28:28;;;;;;;5.40;3.90;;;;;;;27.50;60.50;98536.38;5027309;28;20214;-77
2022/05/24 11:31:17;;;;;;;4.75;3.80;;;;;;;27.78;60.65;98549.19;5028148;28;20597;-76
2022/05/24 11:33:44;;;;;;;5.70;4.00;;;;;;;27.51;60.51;98546.22;5009530;28;20593;-77
2022/05/24 11:36:21;;;;;;;6.03;4.05;;;;;;;27.29;60.60;98543.28;5031360;28;20245;-76
2022/05/24 11:38:49;;;;;;;6.60;3.47;;;;;;;27.98;59.99;98543.38;5029405;28;20194;-76
2022/05/24 11:41:27;;;;;;;5.43;3.95;;;;;;;28.30;60.60;98557.84;5028849;28;20214;-79
2022/05/24 11:43:54;;;;;;;4.13;3.78;;;;;;;28.31;62.81;98553.13;5029525;28;20174;-77
2022/05/24 11:46:33;;;;;;;4.47;4.00;;;;;;;28.67;61.18;98549.09;5028986;28;20195;-76
2022/05/24 11:49:05;;;;;;;5.97;4.30;;;;;;;28.30;57.56;98540.50;5029297;28;20202;-77
2022/05/24 11:51:46;;;;;;;5.45;4.00;;;;;;;28.05;58.25;98534.44;5029147;28;20178;-76
2022/05/24 11:54:16;;;;;;;8.15;4.15;;;;;;;28.15;59.16;98544.91;5029156;28;20240;-76
2022/05/24 11:57:01;;;;;;;4.93;3.78;;;;;;;27.62;60.53;98548.44;5029227;28;20194;-78
2022/05/24 11:59:40;;;;;;;4.13;3.72;;;;;;;27.72;59.66;98547.84;5029181;28;20175;-76
2022/05/24 12:02:19;;;;;;;4.15;3.65;;;;;;;27.46;60.47;98553.91;5029077;28;20289;-76
2022/05/24 12:07:54;;;;;;;5.03;3.60;;;;;;;26.65;63.81;98558.09;5029364;28;20175;-76
2022/05/24 12:10:21;;;;;;;4.05;3.70;;;;;;;26.03;67.07;98555.91;5028660;28;20743;-76
2022/05/24 12:13:14;;;;;;;6.00;3.85;;;;;;;25.51;70.39;98561.31;5029067;28;20183;-76
2022/05/24 12:15:43;;;;;;;6.75;4.13;;;;;;;25.11;75.17;98563.91;5027805;28;20232;-76
2022/05/24 12:18:13;;;;;;;5.85;4.10;;;;;;;24.74;85.41;98561.06;5028855;28;20256;-76
2022/05/24 12:20:40;;;;;;;6.35;4.30;;;;;;;24.49;90.66;98567.59;5028758;28;20736;-76
2022/05/24 12:23:06;;;;;;;5.72;4.30;;;;;;;24.19;90.26;98561.41;5028740;28;20218;-77
2022/05/24 12:26:03;;;;;;;4.75;4.40;;;;;;;23.83;92.90;98561.19;5015311;28;20198;-76
2022/05/24 12:28:35;;;;;;;6.15;5.10;;;;;;;23.47;94.42;98537.13;5011607;28;20214;-77
2022/05/24 12:31:18;;;;;;;7.20;4.70;;;;;;;23.20;99.70;98546.53;5012623;28;20257;-76